Gillette Campbell County Airport
KGCC : now visible

Airfield :











YOU CAN JOIN US ON...

 
LOGIN :

Register | Disclaimer

   EN    FR    IT 

 









Legend :    VFR   Marginal VFR   IFR   Intensive IFR   Very Intensive IFR
Visi :
Ceiling :
>= 8 km
>= 3000ft
5 to 8 km
1000 to 3000 ft
1500m to 5 km
500 to 1000 ft
800 to 1500m
200 to 500 ft
< 800m
< 200 ft
Symbols :   Thunderstorms  Fog  Heavy snow  Heavy precipitations  Wind > 20 kt






- Airport Elevation : 4365 ft


KGCC - Gillette Campbell County

CURRENT METAR :
  • 280453Z AUTO 22005KT 10SM OVC110 M11/M16 A2991 RMK AO2 SLP202 T11111156 $

EXPIRED METARs :
  • 280353Z AUTO 00000KT 10SM OVC100 M16/M18 A2992 RMK AO2 SLP215 T11561178 $
  • 280253Z AUTO 19004KT 10SM OVC110 M13/M16 A2991 RMK AO2 SLP207 T11331161 51007 $
  • 280153Z AUTO 19004KT 10SM BKN110 M17/M18 A2991 RMK AO2 SLP211 T11671183 $
  • 280053Z AUTO 00000KT 10SM CLR M15/M17 A2990 RMK AO2 SLP204 T11501172 $

TAF KGCC
Valid from the 28 at 06:00 until the 29 at 06:00 UTC


280520Z 2806/2906 26007KT P6SM SCT100
FM281300 22018G26KT P6SM SKC
KZDV FIR / North America



MET'MAP, your aeronautical weather chart ! - Copyright ORBIFLY December 2007 - Disclaimer

ORBIFLY MET'MAP TEAM :

Programming & Development : Alexandra Zaïnal
Original concept : Baudouin d'Aumeries
Technical & hardware support : Manuel Goepfert
Assistance : Marc-Olivier Méhu




SOURCES & CREDITS :

   NOAA       Earth
Advisory